createdAt,value
2023-03-25T00:00:19.144Z,1.50
2023-03-25T00:02:48.151Z,1.30
2023-03-25T00:05:20.776Z,1.50
2023-03-25T00:07:52.274Z,1.20
2023-03-25T00:10:19.636Z,1.20
2023-03-25T00:12:51.329Z,1.60
2023-03-25T00:15:22.279Z,1.40
2023-03-25T00:17:51.868Z,1.60
2023-03-25T00:20:18.440Z,1.60
2023-03-25T00:22:45.039Z,1.10
2023-03-25T00:25:17.389Z,1.60
2023-03-25T00:27:46.400Z,1.30
2023-03-25T00:30:18.005Z,1.73
2023-03-25T00:32:51.664Z,1.45
2023-03-25T00:35:24.983Z,1.23
2023-03-25T00:37:59.922Z,1.38
2023-03-25T00:40:28.534Z,1.45
2023-03-25T00:42:55.839Z,1.50
2023-03-25T00:45:22.666Z,1.60
2023-03-25T00:47:49.343Z,1.15
2023-03-25T00:50:15.923Z,1.15
2023-03-25T00:52:42.526Z,1.13
2023-03-25T00:55:09.779Z,1.27
2023-03-25T00:57:39.622Z,1.20
2023-03-25T01:00:08.661Z,1.35
2023-03-25T01:02:39.103Z,1.30
2023-03-25T01:05:07.004Z,1.40
2023-03-25T01:07:33.678Z,1.10
2023-03-25T01:10:00.238Z,1.23
2023-03-25T01:12:33.286Z,1.40
2023-03-25T01:14:59.889Z,1.20
2023-03-25T01:17:26.427Z,1.20
2023-03-25T01:19:52.975Z,1.38
2023-03-25T01:22:22.383Z,1.20
2023-03-25T01:24:48.866Z,1.10
2023-03-25T01:27:15.424Z,0.80
2023-03-25T01:29:42.030Z,1.38
2023-03-25T01:32:08.766Z,1.13
2023-03-25T01:34:38.509Z,1.15
2023-03-25T01:37:05.134Z,1.30
2023-03-25T01:39:32.096Z,1.10
2023-03-25T01:41:58.601Z,1.20
2023-03-25T01:44:25.294Z,1.10
2023-03-25T01:46:54.238Z,1.33
2023-03-25T01:49:30.038Z,1.20
2023-03-25T01:52:01.642Z,1.30
2023-03-25T01:54:28.419Z,1.10
2023-03-25T01:56:56.026Z,1.27
2023-03-25T01:59:27.148Z,1.25
2023-03-25T02:01:58.973Z,1.00
2023-03-25T02:04:38.946Z,1.15
2023-03-25T02:07:08.599Z,1.10
2023-03-25T02:09:35.498Z,1.13
2023-03-25T02:12:02.056Z,1.20
2023-03-25T02:14:34.608Z,1.20
2023-03-25T02:17:10.176Z,1.10
2023-03-25T02:19:40.958Z,1.55
2023-03-25T02:22:27.235Z,1.33
2023-03-25T02:25:01.874Z,1.30
2023-03-25T02:27:47.453Z,1.13
2023-03-25T02:30:34.492Z,1.00
2023-03-25T02:33:28.930Z,1.20
2023-03-25T02:36:33.443Z,1.05
2023-03-25T02:39:25.374Z,1.08
2023-03-25T02:42:09.705Z,1.13
2023-03-25T02:44:42.292Z,1.38
2023-03-25T02:47:14.342Z,1.23
2023-03-25T02:52:32.403Z,1.05
2023-03-25T02:55:04.958Z,1.05
2023-03-25T02:57:35.208Z,1.30
2023-03-25T03:00:12.328Z,1.33
2023-03-25T03:02:39.270Z,1.27
2023-03-25T03:05:22.455Z,1.23
2023-03-25T03:07:53.615Z,1.13
2023-03-25T03:10:25.899Z,1.00
2023-03-25T03:13:21.734Z,1.48
2023-03-25T03:15:54.399Z,1.75
2023-03-25T03:18:48.422Z,1.38
2023-03-25T03:21:17.921Z,1.40
2023-03-25T03:23:57.684Z,1.25
2023-03-25T03:27:01.577Z,1.50
2023-03-25T03:29:43.939Z,1.27
2023-03-25T03:32:16.287Z,1.27
2023-03-25T03:34:59.907Z,1.27
2023-03-25T03:37:33.477Z,1.40
2023-03-25T03:40:03.783Z,1.40
2023-03-25T03:42:37.699Z,1.30
2023-03-25T03:45:10.138Z,1.60
2023-03-25T03:47:42.502Z,1.63
2023-03-25T03:50:14.296Z,1.25
2023-03-25T03:52:59.883Z,1.10
2023-03-25T03:55:37.732Z,1.45
2023-03-25T03:58:15.400Z,1.20
2023-03-25T04:00:51.808Z,1.58
2023-03-25T04:03:24.973Z,1.50
2023-03-25T04:05:58.758Z,1.27
2023-03-25T04:08:31.136Z,1.50
2023-03-25T04:11:07.938Z,1.50
2023-03-25T04:13:38.383Z,1.75
2023-03-25T04:16:05.833Z,1.60
2023-03-25T04:18:33.783Z,1.27
2023-03-25T04:21:01.196Z,1.45
2023-03-25T04:23:31.928Z,1.42
2023-03-25T04:26:02.728Z,1.30
2023-03-25T04:28:29.803Z,1.55
2023-03-25T04:30:57.521Z,1.20
2023-03-25T04:33:24.590Z,1.75
2023-03-25T04:35:54.299Z,1.33
2023-03-25T04:38:21.098Z,1.40
2023-03-25T04:40:48.068Z,1.40
2023-03-25T04:43:16.080Z,1.40
2023-03-25T04:45:49.701Z,1.35
2023-03-25T04:48:24.184Z,1.42
2023-03-25T04:50:55.900Z,1.90
2023-03-25T04:53:22.700Z,1.48
2023-03-25T04:55:50.408Z,1.63
2023-03-25T04:58:18.009Z,1.33
2023-03-25T05:00:46.402Z,1.50
2023-03-25T05:03:16.042Z,1.55
2023-03-25T05:05:42.550Z,1.52
2023-03-25T05:08:11.533Z,1.20
2023-03-25T05:10:38.813Z,1.58
2023-03-25T05:13:07.412Z,1.35
2023-03-25T05:15:39.366Z,1.52
2023-03-25T05:20:39.935Z,1.67
2023-03-25T05:23:12.229Z,1.55
2023-03-25T05:25:40.244Z,1.40
2023-03-25T05:28:09.861Z,1.58
2023-03-25T05:30:39.323Z,1.67
2023-03-25T05:33:06.557Z,1.70
2023-03-25T05:35:33.195Z,1.63
2023-03-25T05:37:59.803Z,1.63
2023-03-25T05:40:26.268Z,1.70
2023-03-25T05:42:54.948Z,1.75
2023-03-25T05:45:22.031Z,1.58
2023-03-25T05:47:48.642Z,1.55
2023-03-25T05:50:15.445Z,1.52
2023-03-25T05:52:45.555Z,1.55
2023-03-25T05:55:18.843Z,1.30
2023-03-25T05:57:46.671Z,1.60
2023-03-25T06:00:19.054Z,1.45
2023-03-25T06:02:46.160Z,1.48
2023-03-25T06:05:14.100Z,1.25
2023-03-25T06:07:46.040Z,1.20
2023-03-25T06:10:17.028Z,1.10
2023-03-25T06:12:45.599Z,1.30
2023-03-25T06:15:14.239Z,1.05
2023-03-25T06:17:41.111Z,1.52
2023-03-25T06:20:12.961Z,1.10
2023-03-25T06:22:46.096Z,1.15
2023-03-25T06:25:18.943Z,1.20
2023-03-25T06:27:48.596Z,1.10
2023-03-25T06:30:18.893Z,1.30
2023-03-25T06:32:50.796Z,1.02
2023-03-25T06:35:20.041Z,1.05
2023-03-25T06:37:48.017Z,1.13
2023-03-25T06:40:15.949Z,1.33
2023-03-25T06:42:42.718Z,1.27
2023-03-25T06:45:13.655Z,1.23
2023-03-25T06:47:40.211Z,1.40
2023-03-25T06:50:07.367Z,1.38
2023-03-25T06:52:33.952Z,1.50
2023-03-25T06:55:00.568Z,1.40
2023-03-25T06:57:27.073Z,1.45
2023-03-25T06:59:53.782Z,1.55
2023-03-25T07:02:20.450Z,1.85
2023-03-25T07:04:46.972Z,1.38
2023-03-25T07:07:13.454Z,1.17
2023-03-25T07:09:39.951Z,1.30
2023-03-25T07:12:08.925Z,1.40
2023-03-25T07:14:35.827Z,1.75
2023-03-25T07:17:02.266Z,1.20
2023-03-25T07:19:28.836Z,1.33
2023-03-25T07:21:55.556Z,1.10
2023-03-25T07:24:22.045Z,1.15
2023-03-25T07:26:48.498Z,1.25
2023-03-25T07:29:15.358Z,1.20
2023-03-25T07:31:41.906Z,1.40
2023-03-25T07:34:08.692Z,1.40
2023-03-25T07:36:35.391Z,1.40
2023-03-25T07:39:02.086Z,1.30
2023-03-25T07:41:28.602Z,1.40
2023-03-25T07:43:55.361Z,1.52
2023-03-25T07:46:21.897Z,1.40
2023-03-25T07:48:48.469Z,1.38
2023-03-25T07:51:14.931Z,1.20
2023-03-25T07:53:44.551Z,1.40
2023-03-25T07:56:11.998Z,1.30
2023-03-25T07:58:38.669Z,1.48
2023-03-25T08:01:06.166Z,1.25
2023-03-25T08:03:33.497Z,1.35
2023-03-25T08:06:01.188Z,1.33
2023-03-25T08:08:30.017Z,1.17
2023-03-25T08:10:56.816Z,1.30
2023-03-25T08:13:24.101Z,1.40
2023-03-25T08:15:51.003Z,1.13
2023-03-25T08:18:18.140Z,1.30
2023-03-25T08:20:44.923Z,1.10
2023-03-25T08:23:12.542Z,1.33
2023-03-25T08:25:41.950Z,1.40
2023-03-25T08:28:08.554Z,1.67
2023-03-25T08:30:38.915Z,1.60
2023-03-25T08:33:07.388Z,1.55
2023-03-25T08:35:35.740Z,1.20
2023-03-25T08:38:05.170Z,1.73
2023-03-25T08:40:33.057Z,1.10
2023-03-25T08:42:59.768Z,1.30
2023-03-25T08:45:26.649Z,1.00
2023-03-25T08:47:53.186Z,1.00
2023-03-25T08:50:19.700Z,1.20
2023-03-25T08:52:46.233Z,1.02
2023-03-25T08:55:16.137Z,0.85
2023-03-25T08:57:42.721Z,1.15
2023-03-25T09:00:16.636Z,1.10
2023-03-25T09:02:43.458Z,0.95
2023-03-25T09:05:11.914Z,0.95
2023-03-25T09:07:39.851Z,0.80
2023-03-25T09:10:07.835Z,1.13
2023-03-25T09:12:34.829Z,1.10
2023-03-25T09:15:01.406Z,0.90
2023-03-25T09:17:28.006Z,1.00
2023-03-25T09:19:55.489Z,1.20
2023-03-25T09:22:26.112Z,1.10
2023-03-25T09:24:52.577Z,1.00
2023-03-25T09:27:19.142Z,0.70
2023-03-25T09:29:45.873Z,1.23
2023-03-25T09:32:12.385Z,0.90
2023-03-25T09:34:39.456Z,0.80
2023-03-25T09:37:05.980Z,1.10
2023-03-25T09:39:32.610Z,0.90
2023-03-25T09:42:14.454Z,0.80
2023-03-25T09:45:26.997Z,1.00
2023-03-25T09:50:44.405Z,1.00
2023-03-25T09:53:11.116Z,0.95
2023-03-25T09:55:44.611Z,0.90
2023-03-25T09:58:29.861Z,1.15
2023-03-25T10:01:12.114Z,1.00
2023-03-25T10:03:57.287Z,1.05
2023-03-25T10:06:26.333Z,1.00
2023-03-25T10:09:10.083Z,0.90
2023-03-25T10:12:08.897Z,0.93
2023-03-25T10:15:16.720Z,1.15
2023-03-25T10:18:32.984Z,1.10
2023-03-25T10:21:15.390Z,1.00
2023-03-25T10:24:00.345Z,1.17
2023-03-25T10:26:39.073Z,1.20
2023-03-25T10:29:12.432Z,1.10
2023-03-25T10:31:47.094Z,1.10
2023-03-25T10:34:19.324Z,1.00
2023-03-25T10:36:51.594Z,1.10
2023-03-25T10:39:21.178Z,1.30
2023-03-25T10:42:20.774Z,1.20
2023-03-25T10:44:48.347Z,0.98
2023-03-25T10:47:22.696Z,1.33
2023-03-25T10:49:51.315Z,1.00
2023-03-25T10:52:18.547Z,1.10
2023-03-25T10:54:51.617Z,1.02
2023-03-25T10:57:27.954Z,1.35
2023-03-25T11:00:18.871Z,1.33
2023-03-25T11:02:46.895Z,1.50
2023-03-25T11:05:19.658Z,1.55
2023-03-25T11:07:54.134Z,1.17
2023-03-25T11:10:34.342Z,1.30
2023-03-25T11:13:06.798Z,1.30
2023-03-25T11:15:38.652Z,1.42
2023-03-25T11:18:24.873Z,1.63
2023-03-25T11:20:56.041Z,1.25
2023-03-25T11:23:27.978Z,1.20
2023-03-25T11:28:46.025Z,1.45
2023-03-25T11:31:17.248Z,1.52
2023-03-25T11:34:20.406Z,1.58
2023-03-25T11:36:55.741Z,1.63
2023-03-25T11:39:34.343Z,2.00
2023-03-25T11:42:11.401Z,2.13
2023-03-25T11:44:38.019Z,1.50
2023-03-25T11:47:08.099Z,1.60
2023-03-25T11:49:49.391Z,1.23
2023-03-25T11:52:21.687Z,2.03
2023-03-25T11:54:49.008Z,2.00
2023-03-25T11:57:29.628Z,1.90
2023-03-25T12:00:06.763Z,1.55
2023-03-25T12:02:39.046Z,1.90
2023-03-25T12:05:08.574Z,1.50
2023-03-25T12:07:47.576Z,2.05
2023-03-25T12:10:17.312Z,1.63
2023-03-25T12:13:09.464Z,2.10
2023-03-25T12:15:46.832Z,1.85
2023-03-25T12:18:19.073Z,1.95
2023-03-25T12:21:04.165Z,1.90
2023-03-25T12:23:36.782Z,1.70
2023-03-25T12:26:12.274Z,1.80
2023-03-25T12:28:44.984Z,1.88
2023-03-25T12:31:33.240Z,1.83
2023-03-25T12:34:18.504Z,1.98
2023-03-25T12:36:56.000Z,1.70
2023-03-25T12:39:42.701Z,1.95
2023-03-25T12:42:18.809Z,2.45
2023-03-25T12:45:00.739Z,1.92
2023-03-25T12:47:35.792Z,1.98
2023-03-25T12:50:41.973Z,1.80
2023-03-25T12:53:11.816Z,1.90
2023-03-25T12:56:11.357Z,2.20
2023-03-25T12:58:48.112Z,1.90
2023-03-25T13:01:42.354Z,2.00
2023-03-25T13:04:08.863Z,2.28
2023-03-25T13:06:42.673Z,2.50
2023-03-25T13:09:24.252Z,2.60
2023-03-25T13:12:05.393Z,2.17
2023-03-25T13:14:44.491Z,2.23
2023-03-25T13:17:29.545Z,2.03
2023-03-25T13:20:06.434Z,2.22
2023-03-25T13:22:36.726Z,2.45
2023-03-25T13:25:08.360Z,2.25
2023-03-25T13:27:41.495Z,2.28
2023-03-25T13:30:17.705Z,2.00
2023-03-25T13:32:50.458Z,2.05
2023-03-25T13:35:25.192Z,2.00
2023-03-25T13:38:01.347Z,2.00
2023-03-25T13:40:33.791Z,2.25
2023-03-25T13:43:07.591Z,2.15
2023-03-25T13:45:51.155Z,2.80
2023-03-25T13:48:34.943Z,2.20
2023-03-25T13:51:04.103Z,2.42
2023-03-25T13:53:40.799Z,2.35
2023-03-25T13:56:27.209Z,2.53
2023-03-25T13:59:13.848Z,2.13
2023-03-25T14:01:58.330Z,2.25
2023-03-25T14:04:31.382Z,2.05
2023-03-25T14:07:28.847Z,1.70
2023-03-25T14:10:18.989Z,2.00
2023-03-25T14:12:59.466Z,2.42
2023-03-25T14:15:31.415Z,1.83
2023-03-25T14:20:34.476Z,1.85
2023-03-25T14:23:07.031Z,1.80
2023-03-25T14:25:43.646Z,2.15
2023-03-25T14:28:19.610Z,2.10
2023-03-25T14:31:14.728Z,2.10
2023-03-25T14:33:59.496Z,2.28
2023-03-25T14:36:49.620Z,2.10
2023-03-25T14:39:27.993Z,1.58
2023-03-25T14:41:58.039Z,1.98
2023-03-25T14:44:29.000Z,2.30
2023-03-25T14:47:16.296Z,2.10
2023-03-25T14:50:05.259Z,2.50
2023-03-25T14:52:48.276Z,2.67
2023-03-25T14:55:28.221Z,2.33
2023-03-25T14:58:01.994Z,1.70
2023-03-25T15:00:42.478Z,1.60
2023-03-25T15:03:11.047Z,2.35
2023-03-25T15:05:39.854Z,1.63
2023-03-25T15:08:07.258Z,1.95
2023-03-25T15:10:36.626Z,1.90
2023-03-25T15:13:09.597Z,1.67
2023-03-25T15:15:45.303Z,1.90
2023-03-25T15:18:37.195Z,1.90
2023-03-25T15:21:11.421Z,2.40
2023-03-25T15:23:42.495Z,2.80
2023-03-25T15:26:24.123Z,4.53
2023-03-25T15:28:56.654Z,2.72
2023-03-25T15:31:38.217Z,2.88
2023-03-25T15:34:11.046Z,2.90
2023-03-25T15:37:08.539Z,2.60
2023-03-25T15:40:09.841Z,2.25
2023-03-25T15:43:04.791Z,2.10
2023-03-25T15:45:49.501Z,2.65
2023-03-25T15:48:27.344Z,2.53
2023-03-25T15:51:12.535Z,2.30
2023-03-25T15:53:51.246Z,2.47
2023-03-25T15:56:23.663Z,2.40
2023-03-25T15:58:57.822Z,2.22
2023-03-25T16:01:28.578Z,2.08
2023-03-25T16:04:00.104Z,2.33
2023-03-25T16:06:28.581Z,1.88
2023-03-25T16:08:57.765Z,1.95
2023-03-25T16:11:26.783Z,1.73
2023-03-25T16:14:05.203Z,2.22
2023-03-25T16:16:36.108Z,1.98
2023-03-25T16:19:11.822Z,1.85
2023-03-25T16:21:38.714Z,2.45
2023-03-25T16:24:09.063Z,2.65
2023-03-25T16:26:40.847Z,2.35
2023-03-25T16:29:23.137Z,2.25
2023-03-25T16:32:01.893Z,2.60
2023-03-25T16:34:37.800Z,1.80
2023-03-25T16:37:06.279Z,2.05
2023-03-25T16:39:35.697Z,2.15
2023-03-25T16:42:10.710Z,1.80
2023-03-25T16:44:37.852Z,2.00
2023-03-25T16:47:05.567Z,2.38
2023-03-25T16:49:35.396Z,2.13
2023-03-25T16:52:08.116Z,2.08
2023-03-25T16:54:43.595Z,2.30
2023-03-25T16:57:22.513Z,2.72
2023-03-25T16:59:52.158Z,2.33
2023-03-25T17:02:26.934Z,2.90
2023-03-25T17:04:55.929Z,2.28
2023-03-25T17:07:27.561Z,2.60
2023-03-25T17:09:59.041Z,2.08
2023-03-25T17:12:28.440Z,2.10
2023-03-25T17:15:09.207Z,2.42
2023-03-25T17:17:48.716Z,2.08
2023-03-25T17:20:22.149Z,1.95
2023-03-25T17:23:04.625Z,2.20
2023-03-25T17:25:35.951Z,2.10
2023-03-25T17:28:35.188Z,1.65
2023-03-25T17:31:25.013Z,1.58
2023-03-25T17:34:01.783Z,2.08
2023-03-25T17:36:31.489Z,1.90
2023-03-25T17:39:00.386Z,1.65
2023-03-25T17:41:35.408Z,1.48
2023-03-25T17:44:02.128Z,3.83
2023-03-25T17:46:30.466Z,2.97
2023-03-25T17:48:58.374Z,3.05
2023-03-25T17:51:27.676Z,3.20
2023-03-25T17:53:54.810Z,2.60
2023-03-25T17:56:27.444Z,1.80
2023-03-25T17:59:03.204Z,1.90
2023-03-25T18:01:31.321Z,1.60
2023-03-25T18:03:58.250Z,1.83
2023-03-25T18:06:25.051Z,1.40
2023-03-25T18:08:51.640Z,1.63
2023-03-25T18:11:18.137Z,1.50
2023-03-25T18:13:48.187Z,1.50
2023-03-25T18:16:20.369Z,2.17
2023-03-25T18:18:47.283Z,2.10
2023-03-25T18:21:16.727Z,3.15
2023-03-25T18:23:48.606Z,2.70
2023-03-25T18:26:17.879Z,2.55
2023-03-25T18:28:46.244Z,2.03
2023-03-25T18:31:17.110Z,1.50
2023-03-25T18:33:48.637Z,1.58
2023-03-25T18:36:15.459Z,1.95
2023-03-25T18:38:43.504Z,1.88
2023-03-25T18:41:11.737Z,2.00
2023-03-25T18:43:38.207Z,2.80
2023-03-25T18:46:04.965Z,2.70
2023-03-25T18:48:31.427Z,4.43
2023-03-25T18:50:59.977Z,4.05
2023-03-25T18:53:29.016Z,4.22
2023-03-25T18:56:00.009Z,4.43
2023-03-25T18:58:30.212Z,3.20
2023-03-25T19:00:57.341Z,3.38
2023-03-25T19:03:30.500Z,2.80
2023-03-25T19:05:59.326Z,4.00
2023-03-25T19:08:27.343Z,2.47
2023-03-25T19:11:01.796Z,1.70
2023-03-25T19:13:34.870Z,1.38
2023-03-25T19:16:01.503Z,1.65
2023-03-25T19:18:32.127Z,1.58
2023-03-25T19:20:59.466Z,1.40
2023-03-25T19:23:27.027Z,2.00
2023-03-25T19:25:53.719Z,1.60
2023-03-25T19:28:22.608Z,1.73
2023-03-25T19:30:51.482Z,1.63
2023-03-25T19:33:19.629Z,2.00
2023-03-25T19:35:50.834Z,1.88
2023-03-25T19:38:22.866Z,1.77
2023-03-25T19:40:51.866Z,1.85
2023-03-25T19:43:18.747Z,2.03
2023-03-25T19:45:45.257Z,2.55
2023-03-25T19:48:11.990Z,2.40
2023-03-25T19:50:40.727Z,2.15
2023-03-25T19:53:07.454Z,2.17
2023-03-25T19:55:34.384Z,2.20
2023-03-25T19:58:00.967Z,2.30
2023-03-25T20:00:27.763Z,2.20
2023-03-25T20:03:01.660Z,2.10
2023-03-25T20:05:32.237Z,2.00
2023-03-25T20:07:59.192Z,1.85
2023-03-25T20:10:28.479Z,2.38
2023-03-25T20:12:55.737Z,2.40
2023-03-25T20:15:23.839Z,2.20
2023-03-25T20:17:51.999Z,1.85
2023-03-25T20:20:19.772Z,1.88
2023-03-25T20:22:48.270Z,1.85
2023-03-25T20:25:16.755Z,1.55
2023-03-25T20:27:44.166Z,1.77
2023-03-25T20:30:14.866Z,1.98
2023-03-25T20:32:43.180Z,1.80
2023-03-25T20:35:12.982Z,1.95
2023-03-25T20:37:40.636Z,2.10
2023-03-25T20:40:11.402Z,2.00
2023-03-25T20:42:43.770Z,2.10
2023-03-25T20:45:13.667Z,1.70
2023-03-25T20:47:42.926Z,1.95
2023-03-25T20:50:12.774Z,1.70
2023-03-25T20:52:39.325Z,1.80
2023-03-25T20:55:06.636Z,1.90
2023-03-25T20:57:33.655Z,2.00
2023-03-25T21:00:00.258Z,1.80
2023-03-25T21:02:27.328Z,1.90
2023-03-25T21:04:56.773Z,1.95
2023-03-25T21:07:24.380Z,2.13
2023-03-25T21:09:50.832Z,1.90
2023-03-25T21:12:17.363Z,2.13
2023-03-25T21:14:43.916Z,2.05
2023-03-25T21:17:10.517Z,1.83
2023-03-25T21:19:37.013Z,1.70
2023-03-25T21:22:06.538Z,1.90
2023-03-25T21:24:35.801Z,1.90
2023-03-25T21:27:02.861Z,1.88
2023-03-25T21:29:29.986Z,2.08
2023-03-25T21:31:57.702Z,2.42
2023-03-25T21:34:24.790Z,2.10
2023-03-25T21:36:53.948Z,2.00
2023-03-25T21:39:20.749Z,2.08
2023-03-25T21:41:47.211Z,1.88
2023-03-25T21:44:15.934Z,2.10
2023-03-25T21:46:43.273Z,1.95
2023-03-25T21:49:10.221Z,1.83
2023-03-25T21:51:42.366Z,1.90
2023-03-25T21:54:09.834Z,1.80
2023-03-25T21:56:39.787Z,2.17
2023-03-25T21:59:06.262Z,2.78
2023-03-25T22:01:41.578Z,1.98
2023-03-25T22:04:09.025Z,2.08
2023-03-25T22:06:37.129Z,2.00
2023-03-25T22:09:07.036Z,1.92
2023-03-25T22:11:35.602Z,1.90
2023-03-25T22:14:02.358Z,2.35
2023-03-25T22:16:28.870Z,2.08
2023-03-25T22:18:55.553Z,2.00
2023-03-25T22:21:24.368Z,2.25
2023-03-25T22:23:54.595Z,2.38
2023-03-25T22:26:23.120Z,2.38
2023-03-25T22:28:54.269Z,2.50
2023-03-25T22:31:25.859Z,2.58
2023-03-25T22:33:58.528Z,2.40
2023-03-25T22:36:25.746Z,2.75
2023-03-25T22:38:52.654Z,2.63
2023-03-25T22:41:19.406Z,2.80
2023-03-25T22:43:46.602Z,2.60
2023-03-25T22:46:14.647Z,2.72
2023-03-25T22:48:42.302Z,2.72
2023-03-25T22:51:11.765Z,2.47
2023-03-25T22:53:39.167Z,3.10
2023-03-25T22:56:06.683Z,2.45
2023-03-25T22:58:33.680Z,3.10
2023-03-25T23:01:02.237Z,2.78
2023-03-25T23:03:29.726Z,2.90
2023-03-25T23:06:02.299Z,3.35
2023-03-25T23:08:31.668Z,3.28
2023-03-25T23:11:07.242Z,3.20
2023-03-25T23:13:34.701Z,3.28
2023-03-25T23:16:04.350Z,3.13
2023-03-25T23:18:31.284Z,3.10
2023-03-25T23:20:59.420Z,3.28
2023-03-25T23:23:26.770Z,3.15
2023-03-25T23:26:03.543Z,2.80
2023-03-25T23:28:34.467Z,2.80
2023-03-25T23:31:01.998Z,2.97
2023-03-25T23:33:29.215Z,3.10
2023-03-25T23:36:03.134Z,2.60
2023-03-25T23:38:29.678Z,2.67
2023-03-25T23:41:07.696Z,2.83
2023-03-25T23:43:35.291Z,3.25
2023-03-25T23:46:02.734Z,3.60
2023-03-25T23:48:29.651Z,3.38
2023-03-25T23:50:56.710Z,3.45
2023-03-25T23:53:24.568Z,3.35
2023-03-25T23:55:54.114Z,3.67
2023-03-25T23:58:24.672Z,2.95
